Time;durP1;ratioP1;P1;durP2;ratioP2;P2;SDS_P1;SDS_P2;PMS_P1;PMS_P2;Temp;Humidity;BMP_temperature;BMP_pressure;BME280_temperature;BME280_humidity;BME280_pressure;Samples;Min_cycle;Max_cycle;Signal;HPM_P1;HPM_P2
2024/01/02 00:01:36;;;;;;;9.45;2.72;;;;;;;;;;7386604;19;19999;-77
2024/01/02 00:04:02;;;;;;;10.63;2.40;;;;;;;;;;7382252;19;20002;-77
2024/01/02 00:06:27;;;;;;;11.73;2.38;;;;;;;;;;7388274;19;20352;-76
2024/01/02 00:08:53;;;;;;;8.02;2.30;;;;;;;;;;7410573;19;20003;-77
2024/01/02 00:11:19;;;;;;;10.52;2.45;;;;;;;;;;7385365;19;20432;-77
2024/01/02 00:13:44;;;;;;;10.68;2.67;;;;;;;;;;7386502;19;19999;-76
2024/01/02 00:16:10;;;;;;;9.55;2.65;;;;;;;;;;7387609;19;20034;-77
2024/01/02 00:18:35;;;;;;;7.93;2.22;;;;;;;;;;7384327;19;20033;-77
2024/01/02 00:21:00;;;;;;;8.98;2.50;;;;;;;;;;7385168;19;20017;-77
2024/01/02 00:23:27;;;;;;;9.23;2.35;;;;;;;;;;7398984;19;20002;-77
2024/01/02 00:25:53;;;;;;;13.68;2.65;;;;;;;;;;7377930;19;20491;-77
2024/01/02 00:28:18;;;;;;;6.63;2.22;;;;;;;;;;7393026;19;20003;-77
2024/01/02 00:30:44;;;;;;;10.55;2.60;;;;;;;;;;7392563;19;20006;-78
2024/01/02 00:33:11;;;;;;;9.75;2.53;;;;;;;;;;7391462;19;19998;-77
2024/01/02 00:35:37;;;;;;;12.77;2.78;;;;;;;;;;7404154;19;20005;-77
2024/01/02 00:38:03;;;;;;;13.65;3.08;;;;;;;;;;7383650;19;20010;-77
2024/01/02 00:40:29;;;;;;;8.82;2.55;;;;;;;;;;7384154;19;20009;-77
2024/01/02 00:42:55;;;;;;;10.75;2.42;;;;;;;;;;7384088;19;20082;-77
2024/01/02 00:45:20;;;;;;;16.83;2.30;;;;;;;;;;7384992;19;20038;-78
2024/01/02 00:47:46;;;;;;;7.85;2.28;;;;;;;;;;7410494;19;20006;-77
2024/01/02 00:50:12;;;;;;;8.00;2.35;;;;;;;;;;7386106;19;20028;-77
2024/01/02 00:52:37;;;;;;;9.07;2.50;;;;;;;;;;7385248;19;19998;-77
2024/01/02 00:55:04;;;;;;;7.15;2.25;;;;;;;;;;7386732;19;20321;-77
2024/01/02 00:57:30;;;;;;;10.13;2.53;;;;;;;;;;7384848;19;20010;-77
2024/01/02 00:59:55;;;;;;;10.85;2.72;;;;;;;;;;7393977;19;20058;-78
2024/01/02 01:02:21;;;;;;;5.60;2.20;;;;;;;;;;7401192;19;20049;-78
2024/01/02 01:04:47;;;;;;;10.55;2.65;;;;;;;;;;7396572;19;20002;-78
2024/01/02 01:07:12;;;;;;;6.18;2.00;;;;;;;;;;7407448;19;19995;-78
2024/01/02 01:09:38;;;;;;;8.68;2.47;;;;;;;;;;7406525;19;20010;-77
2024/01/02 01:12:04;;;;;;;9.60;2.65;;;;;;;;;;7405586;19;20039;-78
2024/01/02 01:14:33;;;;;;;10.88;3.10;;;;;;;;;;7419322;19;20002;-78
2024/01/02 01:17:09;;;;;;;15.82;2.55;;;;;;;;;;7397835;19;20006;-79
2024/01/02 01:19:36;;;;;;;10.05;2.42;;;;;;;;;;7405341;19;20074;-79
2024/01/02 01:22:06;;;;;;;10.00;2.63;;;;;;;;;;7397641;19;20058;-80
2024/01/02 01:24:32;;;;;;;9.65;2.58;;;;;;;;;;7383162;19;20689;-80
2024/01/02 01:26:59;;;;;;;8.02;2.60;;;;;;;;;;7390840;19;19998;-80
2024/01/02 01:29:25;;;;;;;8.20;2.45;;;;;;;;;;7407303;19;20013;-79
2024/01/02 01:31:50;;;;;;;5.13;2.33;;;;;;;;;;7385131;19;20461;-80
2024/01/02 01:34:16;;;;;;;7.80;2.50;;;;;;;;;;7391447;19;20321;-79
2024/01/02 01:36:41;;;;;;;7.47;2.53;;;;;;;;;;7394629;19;20021;-79
2024/01/02 01:39:07;;;;;;;7.32;2.33;;;;;;;;;;7387787;19;20002;-79
2024/01/02 01:41:32;;;;;;;5.72;2.00;;;;;;;;;;7401939;19;20006;-79
2024/01/02 01:43:58;;;;;;;11.10;2.60;;;;;;;;;;7383498;19;20009;-78
2024/01/02 01:46:26;;;;;;;7.97;2.38;;;;;;;;;;7377733;19;20078;-78
2024/01/02 01:48:52;;;;;;;12.90;3.28;;;;;;;;;;7377404;19;20006;-77
2024/01/02 01:51:17;;;;;;;12.00;2.75;;;;;;;;;;7379925;19;20007;-78
2024/01/02 01:53:45;;;;;;;13.18;2.75;;;;;;;;;;7400604;19;20017;-77
2024/01/02 01:56:10;;;;;;;7.38;2.47;;;;;;;;;;7370199;19;20029;-77
2024/01/02 01:58:36;;;;;;;10.88;2.70;;;;;;;;;;7375720;19;20010;-78
2024/01/02 02:01:01;;;;;;;7.97;2.50;;;;;;;;;;7374154;19;20016;-78
2024/01/02 02:03:27;;;;;;;9.13;2.30;;;;;;;;;;7372416;19;20019;-77
2024/01/02 02:05:53;;;;;;;9.95;2.58;;;;;;;;;;7393945;19;20106;-77
2024/01/02 02:08:18;;;;;;;7.22;2.30;;;;;;;;;;7370323;19;20113;-78
2024/01/02 02:10:43;;;;;;;8.55;2.28;;;;;;;;;;7374215;19;20011;-78
2024/01/02 02:13:09;;;;;;;5.68;2.15;;;;;;;;;;7372198;19;20003;-78
2024/01/02 02:15:38;;;;;;;8.32;2.38;;;;;;;;;;7373102;19;20048;-78
2024/01/02 02:18:04;;;;;;;9.82;2.50;;;;;;;;;;7388360;19;20010;-78
2024/01/02 02:20:29;;;;;;;10.45;2.30;;;;;;;;;;7399553;19;20030;-78
2024/01/02 02:22:55;;;;;;;9.15;2.42;;;;;;;;;;7371148;19;20774;-79
2024/01/02 02:25:20;;;;;;;7.28;2.40;;;;;;;;;;7373098;19;20017;-78
2024/01/02 02:27:46;;;;;;;7.25;2.00;;;;;;;;;;7375616;19;20002;-79
2024/01/02 02:30:12;;;;;;;9.38;2.88;;;;;;;;;;7377751;19;20028;-78
2024/01/02 02:32:37;;;;;;;7.05;1.90;;;;;;;;;;7426798;19;19999;-78
2024/01/02 02:35:08;;;;;;;7.80;2.20;;;;;;;;;;7406067;19;20035;-78
2024/01/02 02:37:33;;;;;;;8.05;2.60;;;;;;;;;;7404041;19;20027;-78
2024/01/02 02:39:58;;;;;;;11.48;2.53;;;;;;;;;;7405838;19;19999;-78
2024/01/02 02:42:24;;;;;;;7.68;2.60;;;;;;;;;;7395296;19;20027;-78
2024/01/02 02:44:49;;;;;;;8.85;2.50;;;;;;;;;;7393438;19;20151;-78
2024/01/02 02:47:15;;;;;;;6.72;2.05;;;;;;;;;;7372076;19;20058;-78
2024/01/02 02:49:41;;;;;;;6.07;2.20;;;;;;;;;;7371914;19;20006;-78
2024/01/02 02:52:07;;;;;;;6.72;2.00;;;;;;;;;;7373540;19;20385;-78
2024/01/02 02:54:32;;;;;;;10.00;2.17;;;;;;;;;;7372655;19;20027;-78
2024/01/02 02:56:57;;;;;;;8.52;2.58;;;;;;;;;;7373134;19;20001;-78
2024/01/02 02:59:23;;;;;;;7.78;2.35;;;;;;;;;;7393559;19;20013;-78
2024/01/02 03:01:48;;;;;;;8.15;2.22;;;;;;;;;;7373124;19;20840;-78
2024/01/02 03:04:14;;;;;;;6.75;1.90;;;;;;;;;;7372383;19;20018;-78
2024/01/02 03:06:39;;;;;;;7.70;2.45;;;;;;;;;;7373661;19;20022;-78
2024/01/02 03:09:04;;;;;;;7.85;2.20;;;;;;;;;;7372943;19;20003;-78
2024/01/02 03:11:30;;;;;;;7.25;1.90;;;;;;;;;;7396149;19;20003;-78
2024/01/02 03:13:55;;;;;;;8.38;2.40;;;;;;;;;;7370178;19;20006;-78
2024/01/02 03:16:23;;;;;;;4.97;2.10;;;;;;;;;;7371185;19;20006;-78
2024/01/02 03:18:48;;;;;;;7.30;2.03;;;;;;;;;;7386691;19;20010;-78
2024/01/02 03:21:14;;;;;;;5.20;2.08;;;;;;;;;;7381855;19;20020;-78
2024/01/02 03:23:39;;;;;;;6.78;2.10;;;;;;;;;;7392051;19;20014;-78
2024/01/02 03:26:04;;;;;;;8.98;2.20;;;;;;;;;;7373335;19;20006;-79
2024/01/02 03:28:31;;;;;;;8.52;2.25;;;;;;;;;;7375127;19;20025;-77
2024/01/02 03:30:56;;;;;;;7.55;1.83;;;;;;;;;;7375335;19;20010;-78
2024/01/02 03:33:21;;;;;;;7.60;3.03;;;;;;;;;;7378389;19;20003;-78
2024/01/02 03:35:47;;;;;;;9.70;3.28;;;;;;;;;;7416436;19;20007;-78
2024/01/02 03:38:13;;;;;;;7.45;3.30;;;;;;;;;;7386483;19;20041;-78
2024/01/02 03:40:38;;;;;;;7.68;3.35;;;;;;;;;;7377722;19;20014;-78
2024/01/02 03:43:03;;;;;;;5.70;2.58;;;;;;;;;;7373599;19;20047;-78
2024/01/02 03:45:29;;;;;;;7.00;2.22;;;;;;;;;;7375550;19;20731;-79
2024/01/02 03:47:54;;;;;;;7.25;2.67;;;;;;;;;;7401199;19;20313;-79
2024/01/02 03:50:20;;;;;;;6.95;2.05;;;;;;;;;;7394078;19;20006;-79
2024/01/02 03:52:45;;;;;;;4.45;2.03;;;;;;;;;;7397103;19;20009;-79
2024/01/02 03:55:10;;;;;;;4.60;2.20;;;;;;;;;;7399633;19;20010;-79
2024/01/02 03:57:36;;;;;;;6.53;2.40;;;;;;;;;;7394470;19;20015;-79
2024/01/02 04:00:01;;;;;;;9.00;2.25;;;;;;;;;;7376313;19;20003;-79
2024/01/02 04:02:27;;;;;;;6.00;2.90;;;;;;;;;;7394237;19;20002;-79
2024/01/02 04:04:52;;;;;;;6.07;3.15;;;;;;;;;;7374519;19;20065;-79
2024/01/02 04:07:17;;;;;;;8.85;4.07;;;;;;;;;;7374160;19;20495;-78
2024/01/02 04:09:43;;;;;;;7.50;3.20;;;;;;;;;;7372564;19;20399;-78
2024/01/02 04:12:08;;;;;;;9.43;3.78;;;;;;;;;;7373303;19;20610;-78
2024/01/02 04:14:33;;;;;;;9.80;5.35;;;;;;;;;;7398129;19;20333;-79
2024/01/02 04:16:59;;;;;;;6.97;3.20;;;;;;;;;;7379017;19;20006;-79
2024/01/02 04:19:24;;;;;;;9.88;5.18;;;;;;;;;;7381694;19;20022;-79
2024/01/02 04:21:49;;;;;;;5.60;3.50;;;;;;;;;;7382237;19;20049;-79
2024/01/02 04:24:15;;;;;;;5.07;3.20;;;;;;;;;;7383272;19;20028;-79
2024/01/02 04:26:40;;;;;;;7.90;2.85;;;;;;;;;;7407047;19;19999;-79
2024/01/02 04:29:06;;;;;;;5.60;2.17;;;;;;;;;;7389043;19;20017;-79
2024/01/02 04:31:31;;;;;;;5.47;2.30;;;;;;;;;;7379345;19;20017;-79
2024/01/02 04:33:56;;;;;;;3.58;1.90;;;;;;;;;;7381459;19;20010;-79
2024/01/02 04:36:25;;;;;;;3.28;1.85;;;;;;;;;;7394409;19;20018;-79
2024/01/02 04:38:51;;;;;;;5.35;2.30;;;;;;;;;;7415713;19;20030;-79
2024/01/02 04:41:16;;;;;;;8.65;2.60;;;;;;;;;;7396829;19;20412;-79
2024/01/02 04:43:41;;;;;;;4.70;2.25;;;;;;;;;;7397110;19;20495;-79
2024/01/02 04:46:09;;;;;;;7.40;2.75;;;;;;;;;;7401824;19;20017;-78
2024/01/02 04:48:35;;;;;;;4.70;2.15;;;;;;;;;;7387755;19;20014;-79
2024/01/02 04:51:00;;;;;;;7.82;2.55;;;;;;;;;;7387042;19;20020;-79
2024/01/02 04:53:25;;;;;;;6.00;2.90;;;;;;;;;;7405721;19;20016;-79
2024/01/02 04:55:51;;;;;;;3.45;2.10;;;;;;;;;;7382034;19;20051;-79
2024/01/02 04:58:16;;;;;;;5.47;2.03;;;;;;;;;;7384681;19;20040;-79
2024/01/02 05:00:41;;;;;;;4.72;1.98;;;;;;;;;;7386535;19;20018;-79
2024/01/02 05:03:06;;;;;;;5.85;2.67;;;;;;;;;;7383323;19;20014;-78
2024/01/02 05:05:32;;;;;;;4.70;2.30;;;;;;;;;;7418368;19;20006;-79
2024/01/02 05:07:58;;;;;;;5.15;2.17;;;;;;;;;;7390102;19;20007;-79
2024/01/02 05:10:23;;;;;;;2.10;1.70;;;;;;;;;;7383401;19;20070;-79
2024/01/02 05:12:50;;;;;;;5.63;2.40;;;;;;;;;;7382371;19;20023;-78
2024/01/02 05:15:16;;;;;;;5.57;2.03;;;;;;;;;;7382570;19;20071;-79
2024/01/02 05:17:41;;;;;;;5.78;2.40;;;;;;;;;;7402921;19;20028;-77
2024/01/02 05:20:08;;;;;;;4.38;2.25;;;;;;;;;;7377412;19;20382;-79
2024/01/02 05:22:33;;;;;;;3.47;2.05;;;;;;;;;;7375706;19;20006;-78
2024/01/02 05:24:59;;;;;;;4.13;2.05;;;;;;;;;;7376842;19;20121;-78
2024/01/02 05:27:24;;;;;;;4.22;2.10;;;;;;;;;;7378396;19;20102;-78
2024/01/02 05:29:49;;;;;;;4.78;2.35;;;;;;;;;;7396631;19;20064;-78
2024/01/02 05:32:15;;;;;;;6.32;2.25;;;;;;;;;;7377685;19;20354;-79
2024/01/02 05:34:40;;;;;;;5.00;1.95;;;;;;;;;;7374882;19;20010;-78
2024/01/02 05:37:05;;;;;;;4.40;2.25;;;;;;;;;;7375479;19;20010;-78
2024/01/02 05:39:30;;;;;;;4.18;1.85;;;;;;;;;;7378730;19;20003;-79
2024/01/02 05:41:56;;;;;;;3.92;1.85;;;;;;;;;;7404147;19;20007;-79
2024/01/02 05:44:21;;;;;;;3.60;1.67;;;;;;;;;;7412190;19;19991;-78
2024/01/02 05:46:46;;;;;;;4.35;2.00;;;;;;;;;;7397646;19;20022;-78
2024/01/02 05:49:12;;;;;;;3.88;1.90;;;;;;;;;;7383784;19;20006;-78
2024/01/02 05:51:37;;;;;;;3.72;1.90;;;;;;;;;;7392818;19;20491;-78
2024/01/02 05:54:02;;;;;;;4.60;2.00;;;;;;;;;;7381778;19;19998;-78
2024/01/02 05:56:28;;;;;;;4.13;2.00;;;;;;;;;;7401021;19;19995;-78
2024/01/02 05:58:53;;;;;;;6.85;2.20;;;;;;;;;;7380811;19;20027;-78
2024/01/02 06:01:18;;;;;;;4.38;1.77;;;;;;;;;;7378201;19;20047;-78
2024/01/02 06:03:44;;;;;;;2.40;1.67;;;;;;;;;;7368567;19;20011;-73
2024/01/02 06:06:09;;;;;;;3.35;1.70;;;;;;;;;;7354992;19;20073;-74
2024/01/02 06:08:35;;;;;;;5.82;2.47;;;;;;;;;;7391030;19;20400;-74
2024/01/02 06:11:00;;;;;;;5.53;2.38;;;;;;;;;;7369915;19;19998;-77
2024/01/02 06:13:25;;;;;;;3.10;1.77;;;;;;;;;;7375943;19;20075;-78
2024/01/02 06:15:50;;;;;;;4.53;1.55;;;;;;;;;;7378040;19;20439;-78
2024/01/02 06:18:16;;;;;;;2.58;1.30;;;;;;;;;;7378758;19;20039;-78
2024/01/02 06:20:41;;;;;;;4.63;1.70;;;;;;;;;;7412246;19;19997;-78
2024/01/02 06:23:07;;;;;;;2.10;1.48;;;;;;;;;;7384072;19;20077;-78
2024/01/02 06:25:32;;;;;;;2.38;1.50;;;;;;;;;;7378243;19;20014;-78
2024/01/02 06:27:57;;;;;;;1.50;1.00;;;;;;;;;;7377156;19;19999;-78
2024/01/02 06:30:23;;;;;;;2.25;0.90;;;;;;;;;;7369431;19;20022;-78
2024/01/02 06:32:48;;;;;;;0.90;0.90;;;;;;;;;;7389999;19;19994;-77
2024/01/02 06:35:14;;;;;;;0.90;0.82;;;;;;;;;;7366817;19;20461;-78
2024/01/02 06:37:40;;;;;;;0.60;0.60;;;;;;;;;;7381297;19;21196;-78
2024/01/02 06:40:06;;;;;;;1.10;0.95;;;;;;;;;;7386920;19;20010;-77
2024/01/02 06:42:32;;;;;;;2.00;1.48;;;;;;;;;;7366365;19;20014;-77
2024/01/02 06:44:57;;;;;;;0.90;0.90;;;;;;;;;;7380637;19;20017;-77
2024/01/02 06:47:22;;;;;;;0.80;0.80;;;;;;;;;;7399403;19;20002;-77
2024/01/02 06:49:47;;;;;;;1.17;0.80;;;;;;;;;;7365064;19;20014;-78
2024/01/02 06:52:13;;;;;;;1.25;0.85;;;;;;;;;;7369711;19;20014;-78
2024/01/02 06:54:38;;;;;;;2.50;1.00;;;;;;;;;;7367603;19;20002;-78
2024/01/02 06:57:04;;;;;;;0.85;0.80;;;;;;;;;;7369783;19;19994;-78
2024/01/02 06:59:29;;;;;;;0.77;0.70;;;;;;;;;;7391843;19;20461;-78
2024/01/02 07:01:54;;;;;;;0.98;0.70;;;;;;;;;;7370039;19;20079;-78
2024/01/02 07:04:20;;;;;;;0.68;0.68;;;;;;;;;;7367222;19;19998;-78
2024/01/02 07:06:45;;;;;;;0.93;0.82;;;;;;;;;;7367641;19;20021;-78
2024/01/02 07:09:10;;;;;;;0.73;0.73;;;;;;;;;;7370522;19;20066;-78
2024/01/02 07:11:36;;;;;;;0.70;0.70;;;;;;;;;;7381021;19;19999;-78
2024/01/02 07:14:01;;;;;;;0.82;0.73;;;;;;;;;;7368441;19;20013;-77
2024/01/02 07:16:26;;;;;;;1.02;0.90;;;;;;;;;;7373173;19;20030;-78
2024/01/02 07:18:52;;;;;;;0.80;0.80;;;;;;;;;;7373976;19;20002;-78
2024/01/02 07:21:17;;;;;;;0.80;0.70;;;;;;;;;;7381282;19;20347;-78
2024/01/02 07:23:43;;;;;;;0.70;0.70;;;;;;;;;;7397674;19;20090;-78
2024/01/02 07:26:08;;;;;;;1.17;0.90;;;;;;;;;;7380528;19;20085;-78
2024/01/02 07:28:35;;;;;;;1.70;0.90;;;;;;;;;;7379870;19;20521;-78
2024/01/02 07:31:01;;;;;;;1.65;0.88;;;;;;;;;;7384998;19;19991;-78
2024/01/02 07:33:26;;;;;;;0.80;0.80;;;;;;;;;;7385798;19;20033;-78
2024/01/02 07:35:51;;;;;;;1.08;0.73;;;;;;;;;;7398365;19;20006;-78
2024/01/02 07:38:17;;;;;;;1.30;1.05;;;;;;;;;;7369194;19;20006;-78
2024/01/02 07:40:42;;;;;;;1.33;0.90;;;;;;;;;;7366237;19;20010;-77
2024/01/02 07:43:07;;;;;;;0.90;0.90;;;;;;;;;;7365398;19;20053;-77
2024/01/02 07:45:33;;;;;;;0.88;0.88;;;;;;;;;;7367532;19;20010;-78
2024/01/02 07:47:58;;;;;;;0.70;0.60;;;;;;;;;;7369988;19;19995;-78
2024/01/02 07:50:23;;;;;;;1.35;0.80;;;;;;;;;;7390902;19;19999;-78
2024/01/02 07:52:48;;;;;;;0.70;0.70;;;;;;;;;;7366574;19;20006;-78
2024/01/02 07:55:14;;;;;;;1.35;0.75;;;;;;;;;;7366958;19;20098;-77
2024/01/02 07:57:39;;;;;;;2.25;1.00;;;;;;;;;;7365064;19;20014;-76
2024/01/02 08:00:05;;;;;;;0.80;0.80;;;;;;;;;;7366964;19;20007;-77
2024/01/02 08:02:31;;;;;;;1.70;0.85;;;;;;;;;;7389170;19;20030;-77
2024/01/02 08:04:56;;;;;;;0.80;0.70;;;;;;;;;;7372625;19;20341;-78
2024/01/02 08:07:21;;;;;;;0.80;0.80;;;;;;;;;;7388387;19;20020;-77
2024/01/02 08:09:47;;;;;;;0.70;0.70;;;;;;;;;;7377640;19;20042;-77
2024/01/02 08:12:12;;;;;;;0.80;0.80;;;;;;;;;;7374915;19;20013;-77
2024/01/02 08:14:38;;;;;;;0.70;0.70;;;;;;;;;;7395197;19;20111;-77
2024/01/02 08:17:03;;;;;;;0.73;0.73;;;;;;;;;;7375698;19;20009;-77
2024/01/02 08:19:28;;;;;;;1.15;0.70;;;;;;;;;;7376715;19;20010;-78
2024/01/02 08:21:54;;;;;;;3.40;1.92;;;;;;;;;;7377863;19;20341;-77
2024/01/02 08:24:19;;;;;;;6.18;2.90;;;;;;;;;;7365700;19;20330;-78
2024/01/02 08:26:44;;;;;;;1.15;0.73;;;;;;;;;;7416189;19;20002;-78
2024/01/02 08:29:10;;;;;;;0.80;0.77;;;;;;;;;;7401380;19;20014;-77
2024/01/02 08:31:35;;;;;;;0.60;0.60;;;;;;;;;;7388191;19;20014;-77
2024/01/02 08:34:00;;;;;;;0.70;0.70;;;;;;;;;;7380384;19;20010;-77
2024/01/02 08:36:26;;;;;;;0.80;0.80;;;;;;;;;;7380222;19;20013;-78
2024/01/02 08:38:51;;;;;;;0.98;0.88;;;;;;;;;;7409776;19;20069;-78
2024/01/02 08:41:16;;;;;;;0.90;0.80;;;;;;;;;;7392430;19;20149;-78
2024/01/02 08:43:42;;;;;;;0.85;0.85;;;;;;;;;;7390017;19;20022;-78
2024/01/02 08:46:07;;;;;;;0.88;0.70;;;;;;;;;;7380404;19;20102;-78
2024/01/02 08:48:33;;;;;;;0.73;0.70;;;;;;;;;;7378964;19;20036;-78
2024/01/02 08:50:58;;;;;;;1.15;0.88;;;;;;;;;;7376760;19;20077;-78
2024/01/02 08:53:23;;;;;;;1.75;0.63;;;;;;;;;;7395686;19;20351;-78
2024/01/02 08:55:48;;;;;;;0.70;0.70;;;;;;;;;;7374858;19;19995;-78
2024/01/02 08:58:14;;;;;;;0.70;0.70;;;;;;;;;;7376198;19;19998;-78
2024/01/02 09:00:40;;;;;;;1.38;0.80;;;;;;;;;;7382179;19;20094;-78
2024/01/02 09:03:06;;;;;;;0.75;0.75;;;;;;;;;;7388003;19;19998;-78
2024/01/02 09:05:32;;;;;;;0.60;0.60;;;;;;;;;;7408694;19;20006;-79
2024/01/02 09:07:59;;;;;;;0.70;0.70;;;;;;;;;;7387800;19;20014;-78
2024/01/02 09:10:25;;;;;;;3.20;1.83;;;;;;;;;;7382608;19;20010;-79
2024/01/02 09:12:50;;;;;;;0.88;0.88;;;;;;;;;;7377907;19;20006;-79
2024/01/02 09:15:16;;;;;;;0.60;0.60;;;;;;;;;;7378228;19;20000;-77
2024/01/02 09:17:41;;;;;;;0.80;0.80;;;;;;;;;;7396733;19;20347;-78
2024/01/02 09:20:07;;;;;;;2.00;1.10;;;;;;;;;;7378485;19;20006;-78
2024/01/02 09:22:32;;;;;;;0.73;0.73;;;;;;;;;;7388238;19;20011;-78
2024/01/02 09:25:00;;;;;;;0.73;0.73;;;;;;;;;;7388264;19;20014;-78
2024/01/02 09:27:30;;;;;;;0.70;0.70;;;;;;;;;;7376904;19;20002;-78
2024/01/02 09:29:58;;;;;;;0.95;0.90;;;;;;;;;;7393460;19;20009;-77
2024/01/02 09:32:24;;;;;;;0.70;0.70;;;;;;;;;;7396052;19;20095;-77
2024/01/02 09:34:49;;;;;;;2.35;0.73;;;;;;;;;;7394145;19;20011;-78
2024/01/02 09:37:14;;;;;;;0.70;0.70;;;;;;;;;;7383380;19;20069;-77
2024/01/02 09:39:40;;;;;;;0.40;0.40;;;;;;;;;;7380804;19;20049;-77
2024/01/02 09:42:24;;;;;;;0.75;0.75;;;;;;;;;;7375357;19;20014;-78
2024/01/02 09:45:02;;;;;;;0.85;0.85;;;;;;;;;;7396493;19;20010;-78
2024/01/02 09:47:46;;;;;;;1.85;0.90;;;;;;;;;;7376633;19;20014;-78
2024/01/02 09:50:27;;;;;;;0.77;0.77;;;;;;;;;;7379606;19;20047;-78
2024/01/02 09:53:11;;;;;;;0.80;0.80;;;;;;;;;;7384357;19;20010;-78
2024/01/02 09:55:51;;;;;;;0.80;0.60;;;;;;;;;;7385736;19;20002;-78
2024/01/02 09:58:46;;;;;;;0.70;0.70;;;;;;;;;;7404985;19;20014;-78
2024/01/02 10:01:18;;;;;;;1.10;1.00;;;;;;;;;;7405290;19;20007;-78
2024/01/02 10:03:48;;;;;;;;;;;;;;;;;;7404462;19;20015;-78
2024/01/02 10:06:29;;;;;;;2.17;0.90;;;;;;;;;;7397563;19;19919;-78
2024/01/02 10:09:19;;;;;;;0.73;0.73;;;;;;;;;;7395054;19;20495;-78
2024/01/02 10:12:06;;;;;;;0.80;0.80;;;;;;;;;;7404471;19;20029;-77
2024/01/02 10:15:04;;;;;;;1.67;0.90;;;;;;;;;;7392715;19;20007;-77
2024/01/02 10:17:33;;;;;;;1.10;1.00;;;;;;;;;;7381144;19;20010;-78
2024/01/02 10:20:25;;;;;;;0.77;0.77;;;;;;;;;;7382909;19;20014;-77
2024/01/02 10:23:10;;;;;;;0.95;0.80;;;;;;;;;;7396708;19;20011;-77
2024/01/02 10:25:36;;;;;;;1.15;0.82;;;;;;;;;;7395918;19;20014;-77
2024/01/02 10:28:18;;;;;;;1.02;0.90;;;;;;;;;;7387956;19;20066;-78
2024/01/02 10:31:23;;;;;;;11.43;6.25;;;;;;;;;;7389053;19;20110;-77
2024/01/02 10:34:19;;;;;;;1.20;1.10;;;;;;;;;;7385706;19;20048;-77
2024/01/02 10:36:50;;;;;;;0.80;0.80;;;;;;;;;;7388599;19;20018;-77
2024/01/02 10:39:34;;;;;;;0.88;0.85;;;;;;;;;;7397325;19;20047;-77
2024/01/02 10:42:39;;;;;;;0.88;0.88;;;;;;;;;;7397947;19;19990;-77
2024/01/02 10:45:19;;;;;;;0.90;0.90;;;;;;;;;;7387539;19;20007;-77
2024/01/02 10:48:09;;;;;;;0.80;0.80;;;;;;;;;;7409130;19;20004;-77
2024/01/02 10:50:52;;;;;;;1.17;1.02;;;;;;;;;;7390173;19;20075;-77
2024/01/02 10:53:54;;;;;;;0.70;0.70;;;;;;;;;;7386998;19;20015;-77
2024/01/02 10:56:37;;;;;;;0.80;0.80;;;;;;;;;;7387182;19;19998;-77
2024/01/02 10:59:47;;;;;;;1.95;1.05;;;;;;;;;;7385667;19;20745;-77
2024/01/02 11:02:54;;;;;;;0.95;0.85;;;;;;;;;;7382255;19;20119;-77
2024/01/02 11:05:29;;;;;;;0.80;0.80;;;;;;;;;;7382853;19;20010;-77
2024/01/02 11:08:11;;;;;;;0.70;0.70;;;;;;;;;;7382689;19;20002;-77
2024/01/02 11:10:41;;;;;;;0.80;0.80;;;;;;;;;;7386868;19;20013;-76
2024/01/02 11:13:08;;;;;;;0.80;0.80;;;;;;;;;;7391732;19;20026;-77
2024/01/02 11:15:38;;;;;;;0.65;0.65;;;;;;;;;;7386268;19;19994;-76
2024/01/02 11:18:05;;;;;;;1.23;1.15;;;;;;;;;;7386807;19;19994;-76
2024/01/02 11:20:53;;;;;;;10.10;5.65;;;;;;;;;;7411863;19;20020;-76
2024/01/02 11:23:22;;;;;;;1.10;1.00;;;;;;;;;;7388104;19;20012;-77
2024/01/02 11:26:18;;;;;;;1.85;0.90;;;;;;;;;;7385867;19;20003;-77
2024/01/02 11:28:46;;;;;;;0.57;0.57;;;;;;;;;;7388127;19;20014;-77
2024/01/02 11:31:14;;;;;;;0.88;0.88;;;;;;;;;;7388859;19;20027;-76
2024/01/02 11:34:16;;;;;;;0.70;0.70;;;;;;;;;;7387668;19;20010;-76
2024/01/02 11:37:19;;;;;;;2.85;0.85;;;;;;;;;;7387416;19;20006;-76
2024/01/02 11:40:10;;;;;;;0.88;0.85;;;;;;;;;;7394169;19;20006;-76
2024/01/02 11:42:51;;;;;;;;;;;;;;;;;;7400644;19;20011;-76
2024/01/02 11:45:20;;;;;;;1.85;0.98;;;;;;;;;;7395258;19;19920;-77
2024/01/02 11:47:57;;;;;;;0.80;0.80;;;;;;;;;;7403132;19;20005;-77
2024/01/02 11:50:26;;;;;;;0.73;0.70;;;;;;;;;;7381758;19;20021;-76
2024/01/02 11:53:27;;;;;;;0.70;0.70;;;;;;;;;;7381290;19;20019;-77
2024/01/02 11:55:55;;;;;;;0.60;0.60;;;;;;;;;;7401681;19;20034;-75
2024/01/02 11:58:37;;;;;;;0.95;0.80;;;;;;;;;;7392364;19;20021;-75
2024/01/02 12:01:28;;;;;;;0.75;0.75;;;;;;;;;;7382617;19;20181;-77
2024/01/02 12:04:18;;;;;;;0.70;0.70;;;;;;;;;;7382292;19;19991;-76
2024/01/02 12:07:03;;;;;;;1.02;0.90;;;;;;;;;;7384798;19;20011;-76
2024/01/02 12:09:31;;;;;;;0.82;0.82;;;;;;;;;;7384487;19;19999;-76
2024/01/02 12:12:25;;;;;;;0.82;0.82;;;;;;;;;;7388014;19;19999;-76
2024/01/02 12:15:10;;;;;;;1.35;0.82;;;;;;;;;;7404789;19;19999;-76
2024/01/02 12:17:52;;;;;;;1.10;1.00;;;;;;;;;;7382077;19;20014;-76
2024/01/02 12:20:19;;;;;;;1.33;0.90;;;;;;;;;;7383044;19;19999;-76
2024/01/02 12:22:45;;;;;;;1.20;1.10;;;;;;;;;;7382036;19;20046;-76
2024/01/02 12:25:11;;;;;;;0.88;0.70;;;;;;;;;;7381904;19;20007;-77
2024/01/02 12:27:37;;;;;;;1.35;0.90;;;;;;;;;;7381173;19;20018;-77
2024/01/02 12:30:04;;;;;;;1.00;0.90;;;;;;;;;;7383393;19;19994;-77
2024/01/02 12:33:01;;;;;;;1.85;0.80;;;;;;;;;;7413271;19;20005;-79
2024/01/02 12:35:57;;;;;;;1.63;1.33;;;;;;;;;;7386594;19;20070;-79
2024/01/02 12:38:25;;;;;;;1.83;1.38;;;;;;;;;;7395051;19;20007;-79
2024/01/02 12:40:55;;;;;;;2.50;1.48;;;;;;;;;;7395559;19;20006;-79
2024/01/02 12:43:25;;;;;;;0.82;0.82;;;;;;;;;;7383114;19;20010;-79
2024/01/02 12:46:20;;;;;;;1.65;1.23;;;;;;;;;;7385474;19;20448;-79
2024/01/02 12:49:16;;;;;;;1.92;1.13;;;;;;;;;;7387544;19;20006;-79
2024/01/02 12:51:48;;;;;;;0.80;0.80;;;;;;;;;;7388256;19;20039;-79
2024/01/02 12:54:19;;;;;;;0.95;0.93;;;;;;;;;;7394654;19;19999;-79
2024/01/02 12:56:54;;;;;;;1.48;0.88;;;;;;;;;;7420499;19;19998;-79
2024/01/02 12:59:19;;;;;;;0.70;0.70;;;;;;;;;;7404083;19;20053;-79
2024/01/02 13:01:45;;;;;;;0.68;0.68;;;;;;;;;;7404543;19;19999;-79
2024/01/02 13:04:16;;;;;;;0.82;0.82;;;;;;;;;;7402230;19;20002;-80
2024/01/02 13:06:45;;;;;;;0.93;0.88;;;;;;;;;;7399076;19;20010;-79
2024/01/02 13:09:10;;;;;;;1.02;0.88;;;;;;;;;;7396095;19;20305;-79
2024/01/02 13:11:36;;;;;;;0.70;0.70;;;;;;;;;;7416923;19;20034;-79
2024/01/02 13:14:01;;;;;;;0.75;0.75;;;;;;;;;;7394933;19;20055;-79
2024/01/02 13:16:27;;;;;;;0.75;0.70;;;;;;;;;;7400725;19;19998;-79
2024/01/02 13:18:53;;;;;;;0.63;0.60;;;;;;;;;;7392748;19;20019;-79
2024/01/02 13:21:19;;;;;;;0.63;0.63;;;;;;;;;;7394687;19;20017;-79
2024/01/02 13:23:58;;;;;;;1.15;1.00;;;;;;;;;;7417102;19;19995;-79
2024/01/02 13:26:24;;;;;;;3.10;1.80;;;;;;;;;;7396879;19;20034;-79
2024/01/02 13:28:51;;;;;;;3.22;2.03;;;;;;;;;;7392785;19;20002;-79
2024/01/02 13:31:30;;;;;;;0.73;0.73;;;;;;;;;;7392038;19;20018;-79
2024/01/02 13:33:56;;;;;;;0.82;0.65;;;;;;;;;;7393280;19;20018;-79
2024/01/02 13:36:26;;;;;;;1.10;0.95;;;;;;;;;;7393862;19;20017;-79
2024/01/02 13:38:51;;;;;;;0.82;0.80;;;;;;;;;;7416963;19;19995;-80
2024/01/02 13:41:18;;;;;;;1.77;0.88;;;;;;;;;;7410562;19;20028;-79
2024/01/02 13:43:43;;;;;;;2.17;0.77;;;;;;;;;;7400325;19;20054;-79
2024/01/02 13:46:21;;;;;;;1.35;0.90;;;;;;;;;;7399329;19;20009;-79
2024/01/02 13:48:49;;;;;;;1.08;0.80;;;;;;;;;;7390778;19;20490;-79
2024/01/02 13:51:15;;;;;;;0.90;0.80;;;;;;;;;;7387355;19;20015;-79
2024/01/02 13:54:01;;;;;;;1.15;1.05;;;;;;;;;;7408984;19;20007;-79
2024/01/02 13:56:27;;;;;;;0.60;0.60;;;;;;;;;;7395131;19;20007;-78
2024/01/02 13:59:07;;;;;;;1.27;0.90;;;;;;;;;;7385327;19;20002;-79
2024/01/02 14:01:35;;;;;;;0.85;0.85;;;;;;;;;;7383961;19;20010;-79
2024/01/02 14:04:03;;;;;;;0.90;0.80;;;;;;;;;;7383638;19;19998;-79
2024/01/02 14:06:36;;;;;;;0.63;0.63;;;;;;;;;;7383302;19;20547;-79
2024/01/02 14:09:13;;;;;;;1.23;0.70;;;;;;;;;;7385978;19;20006;-79
2024/01/02 14:11:59;;;;;;;0.80;0.80;;;;;;;;;;7409378;19;20327;-80
2024/01/02 14:14:31;;;;;;;0.80;0.80;;;;;;;;;;7384790;19;20006;-79
2024/01/02 14:17:00;;;;;;;0.90;0.80;;;;;;;;;;7384569;19;20623;-79
2024/01/02 14:19:29;;;;;;;1.02;0.93;;;;;;;;;;7384342;19;20347;-80
2024/01/02 14:22:03;;;;;;;0.93;0.90;;;;;;;;;;7385038;19;20059;-79
2024/01/02 14:24:45;;;;;;;1.10;0.98;;;;;;;;;;7383441;19;19998;-80
2024/01/02 14:27:28;;;;;;;2.30;1.17;;;;;;;;;;7382993;19;20013;-79
2024/01/02 14:30:07;;;;;;;1.00;1.00;;;;;;;;;;7403545;19;20099;-80
2024/01/02 14:32:51;;;;;;;0.90;0.90;;;;;;;;;;7380977;19;20006;-80
2024/01/02 14:35:22;;;;;;;0.80;0.80;;;;;;;;;;7380682;19;20074;-80
2024/01/02 14:38:06;;;;;;;;;;;;;;;;;;7380531;19;20558;-80
2024/01/02 14:41:00;;;;;;;1.98;0.98;;;;;;;;;;7383930;19;19922;-80
2024/01/02 14:43:41;;;;;;;1.10;1.00;;;;;;;;;;7382564;19;19999;-80
2024/01/02 14:46:29;;;;;;;0.90;0.90;;;;;;;;;;7386843;19;20054;-80
2024/01/02 14:49:00;;;;;;;0.90;0.90;;;;;;;;;;7384725;19;20034;-80
2024/01/02 14:51:50;;;;;;;0.90;0.90;;;;;;;;;;7384125;19;20007;-80
2024/01/02 14:54:22;;;;;;;0.93;0.93;;;;;;;;;;7392878;19;19999;-79
2024/01/02 14:57:20;;;;;;;0.88;0.88;;;;;;;;;;7426241;19;20018;-79
2024/01/02 15:00:08;;;;;;;0.85;0.80;;;;;;;;;;7384631;19;20010;-80